sensor_id;sensor_type;location;lat;lon;timestamp;pressure;altitude;pressure_sealevel;temperature;humidity
22241;BME280;11289;52.524;13.694;2022-07-19T00:02:15;101390.66;;;19.74;53.90
22241;BME280;11289;52.524;13.694;2022-07-19T00:04:41;101385.72;;;19.71;54.16
22241;BME280;11289;52.524;13.694;2022-07-19T00:07:06;101372.41;;;19.67;53.84
22241;BME280;11289;52.524;13.694;2022-07-19T00:09:31;101378.13;;;19.71;53.65
22241;BME280;11289;52.524;13.694;2022-07-19T00:11:57;101386.94;;;19.70;53.69
22241;BME280;11289;52.524;13.694;2022-07-19T00:14:23;101387.69;;;19.66;53.80
22241;BME280;11289;52.524;13.694;2022-07-19T00:16:48;101377.91;;;19.60;54.13
22241;BME280;11289;52.524;13.694;2022-07-19T00:19:14;101396.03;;;19.59;54.08
22241;BME280;11289;52.524;13.694;2022-07-19T00:21:40;101373.78;;;19.54;54.07
22241;BME280;11289;52.524;13.694;2022-07-19T00:24:05;101388.38;;;19.60;54.09
22241;BME280;11289;52.524;13.694;2022-07-19T00:26:31;101384.28;;;19.57;53.99
22241;BME280;11289;52.524;13.694;2022-07-19T00:28:57;101382.69;;;19.56;54.26
22241;BME280;11289;52.524;13.694;2022-07-19T00:31:24;101378.09;;;19.48;54.11
22241;BME280;11289;52.524;13.694;2022-07-19T00:33:50;101378.09;;;19.48;54.18
22241;BME280;11289;52.524;13.694;2022-07-19T00:36:16;101369.53;;;19.41;54.22
22241;BME280;11289;52.524;13.694;2022-07-19T00:38:41;101378.41;;;19.43;54.72
22241;BME280;11289;52.524;13.694;2022-07-19T00:41:07;101365.25;;;19.27;54.91
22241;BME280;11289;52.524;13.694;2022-07-19T00:43:32;101374.06;;;19.26;55.05
22241;BME280;11289;52.524;13.694;2022-07-19T00:45:58;101375.63;;;19.23;55.10
22241;BME280;11289;52.524;13.694;2022-07-19T00:48:24;101371.50;;;19.17;55.16
22241;BME280;11289;52.524;13.694;2022-07-19T00:50:49;101374.69;;;19.16;54.79
22241;BME280;11289;52.524;13.694;2022-07-19T00:53:15;101380.69;;;19.14;54.84
22241;BME280;11289;52.524;13.694;2022-07-19T00:55:41;101388.22;;;19.10;55.11
22241;BME280;11289;52.524;13.694;2022-07-19T00:58:10;101390.16;;;19.06;55.26
22241;BME280;11289;52.524;13.694;2022-07-19T01:00:36;101392.22;;;19.09;55.09
22241;BME280;11289;52.524;13.694;2022-07-19T01:03:02;101388.16;;;19.06;55.04
22241;BME280;11289;52.524;13.694;2022-07-19T01:05:28;101383.13;;;18.96;55.30
22241;BME280;11289;52.524;13.694;2022-07-19T01:07:53;101396.44;;;18.99;55.30
22241;BME280;11289;52.524;13.694;2022-07-19T02:50:31;101373.69;;;17.69;58.71
22241;BME280;11289;52.524;13.694;2022-07-19T02:52:57;101377.78;;;17.72;58.65
22241;BME280;11289;52.524;13.694;2022-07-19T02:55:22;101370.78;;;17.66;58.84
22241;BME280;11289;52.524;13.694;2022-07-19T02:57:48;101372.34;;;17.63;58.58
22241;BME280;11289;52.524;13.694;2022-07-19T03:00:14;101369.41;;;17.60;58.76
22241;BME280;11289;52.524;13.694;2022-07-19T03:02:40;101368.63;;;17.59;58.79
22241;BME280;11289;52.524;13.694;2022-07-19T03:05:06;101369.41;;;17.60;58.91
22241;BME280;11289;52.524;13.694;2022-07-19T03:07:32;101368.06;;;17.53;59.31
22241;BME280;11289;52.524;13.694;2022-07-19T03:09:58;101378.13;;;17.54;59.23
22241;BME280;11289;52.524;13.694;2022-07-19T03:12:23;101363.44;;;17.45;59.67
22241;BME280;11289;52.524;13.694;2022-07-19T03:14:49;101378.66;;;17.44;59.38
22241;BME280;11289;52.524;13.694;2022-07-19T03:17:14;101378.47;;;17.37;59.63
22241;BME280;11289;52.524;13.694;2022-07-19T03:19:39;101384.53;;;17.39;59.53
22241;BME280;11289;52.524;13.694;2022-07-19T03:22:05;101358.72;;;17.33;59.44
22241;BME280;11289;52.524;13.694;2022-07-19T03:24:30;101381.72;;;17.39;59.53
22241;BME280;11289;52.524;13.694;2022-07-19T03:26:56;101356.69;;;17.34;59.66
22241;BME280;11289;52.524;13.694;2022-07-19T03:29:21;101368.28;;;17.32;60.28
22241;BME280;11289;52.524;13.694;2022-07-19T03:31:46;101367.47;;;17.32;60.26
22241;BME280;11289;52.524;13.694;2022-07-19T03:34:12;101352.44;;;17.24;60.06
22241;BME280;11289;52.524;13.694;2022-07-19T03:36:37;101366.19;;;17.29;60.25
22241;BME280;11289;52.524;13.694;2022-07-19T03:39:03;101354.34;;;17.20;60.23
22241;BME280;11289;52.524;13.694;2022-07-19T03:41:29;101366.00;;;17.22;60.49
22241;BME280;11289;52.524;13.694;2022-07-19T03:43:54;101371.25;;;17.23;60.45
22241;BME280;11289;52.524;13.694;2022-07-19T03:46:20;101361.47;;;17.17;60.65
22241;BME280;11289;52.524;13.694;2022-07-19T03:48:46;101372.34;;;17.19;60.74
22241;BME280;11289;52.524;13.694;2022-07-19T03:51:12;101362.19;;;17.14;60.83
22241;BME280;11289;52.524;13.694;2022-07-19T03:53:38;101372.81;;;17.21;60.69
22241;BME280;11289;52.524;13.694;2022-07-19T03:56:03;101377.16;;;17.18;61.19
22241;BME280;11289;52.524;13.694;2022-07-19T03:58:29;101367.34;;;17.12;61.62
22241;BME280;11289;52.524;13.694;2022-07-19T04:00:55;101372.97;;;17.12;61.66
22241;BME280;11289;52.524;13.694;2022-07-19T04:03:20;101367.34;;;17.12;61.40
22241;BME280;11289;52.524;13.694;2022-07-19T04:05:46;101366.53;;;17.12;61.50
22241;BME280;11289;52.524;13.694;2022-07-19T04:08:11;101373.88;;;17.16;61.69
22241;BME280;11289;52.524;13.694;2022-07-19T04:10:37;101354.28;;;17.04;61.73
22241;BME280;11289;52.524;13.694;2022-07-19T04:13:02;101365.38;;;17.13;61.99
22241;BME280;11289;52.524;13.694;2022-07-19T04:15:28;101366.66;;;17.15;62.09
22241;BME280;11289;52.524;13.694;2022-07-19T04:17:53;101366.72;;;17.19;62.47
22241;BME280;11289;52.524;13.694;2022-07-19T04:20:19;101368.38;;;17.20;62.57
22241;BME280;11289;52.524;13.694;2022-07-19T04:22:44;101357.38;;;17.15;62.59
22241;BME280;11289;52.524;13.694;2022-07-19T04:25:10;101357.38;;;17.15;62.79
22241;BME280;11289;52.524;13.694;2022-07-19T04:27:35;101371.25;;;17.23;63.01
22241;BME280;11289;52.524;13.694;2022-07-19T04:30:01;101372.44;;;17.22;62.89
22241;BME280;11289;52.524;13.694;2022-07-19T04:32:26;101372.44;;;17.22;63.19
22241;BME280;11289;52.524;13.694;2022-07-19T04:34:54;101376.16;;;17.27;63.22
22241;BME280;11289;52.524;13.694;2022-07-19T04:37:19;101368.66;;;17.31;63.21
22241;BME280;11289;52.524;13.694;2022-07-19T04:39:45;101366.47;;;17.24;63.08
22241;BME280;11289;52.524;13.694;2022-07-19T04:42:10;101386.88;;;17.37;63.52
22241;BME280;11289;52.524;13.694;2022-07-19T04:44:36;101388.84;;;17.36;63.21
22241;BME280;11289;52.524;13.694;2022-07-19T04:47:01;101387.41;;;17.43;62.80
22241;BME280;11289;52.524;13.694;2022-07-19T04:49:27;101381.09;;;17.46;63.15
22241;BME280;11289;52.524;13.694;2022-07-19T04:51:52;101375.56;;;17.49;63.33
22241;BME280;11289;52.524;13.694;2022-07-19T04:54:17;101380.28;;;17.61;62.97
22241;BME280;11289;52.524;13.694;2022-07-19T04:56:43;101385.00;;;17.89;63.01
22241;BME280;11289;52.524;13.694;2022-07-19T04:59:08;101362.56;;;18.05;62.31
22241;BME280;11289;52.524;13.694;2022-07-19T05:01:34;101369.59;;;18.31;61.78
22241;BME280;11289;52.524;13.694;2022-07-19T05:03:59;101379.47;;;18.40;61.37
22241;BME280;11289;52.524;13.694;2022-07-19T05:06:25;101379.09;;;18.42;61.08
22241;BME280;11289;52.524;13.694;2022-07-19T05:08:51;101377.56;;;18.44;60.79
22241;BME280;11289;52.524;13.694;2022-07-19T05:11:18;101371.84;;;18.41;60.55
22241;BME280;11289;52.524;13.694;2022-07-19T05:13:44;101389.34;;;18.50;60.51
22241;BME280;11289;52.524;13.694;2022-07-19T05:16:09;101386.69;;;18.57;59.81
22241;BME280;11289;52.524;13.694;2022-07-19T05:18:35;101383.56;;;18.62;59.66
22241;BME280;11289;52.524;13.694;2022-07-19T05:21:00;101379.28;;;18.69;58.79
22241;BME280;11289;52.524;13.694;2022-07-19T05:23:26;101378.63;;;18.75;58.42
22241;BME280;11289;52.524;13.694;2022-07-19T05:25:51;101390.03;;;18.83;58.74
22241;BME280;11289;52.524;13.694;2022-07-19T05:28:17;101386.16;;;18.87;57.51
22241;BME280;11289;52.524;13.694;2022-07-19T05:30:42;101376.06;;;18.86;57.39
22241;BME280;11289;52.524;13.694;2022-07-19T05:33:08;101385.94;;;18.96;57.32
22241;BME280;11289;52.524;13.694;2022-07-19T05:35:34;101382.81;;;19.01;56.71
22241;BME280;11289;52.524;13.694;2022-07-19T05:37:59;101395.47;;;19.11;55.78
22241;BME280;11289;52.524;13.694;2022-07-19T05:40:25;101392.00;;;19.18;55.68
22241;BME280;11289;52.524;13.694;2022-07-19T05:42:50;101376.75;;;19.19;55.01
22241;BME280;11289;52.524;13.694;2022-07-19T05:45:16;101393.97;;;19.37;54.59
22241;BME280;11289;52.524;13.694;2022-07-19T05:47:41;101396.31;;;19.54;54.49
22241;BME280;11289;52.524;13.694;2022-07-19T05:50:07;101398.78;;;19.79;54.33
22241;BME280;11289;52.524;13.694;2022-07-19T05:52:32;101397.66;;;20.07;53.66
22241;BME280;11289;52.524;13.694;2022-07-19T05:54:58;101385.88;;;20.51;52.86
22241;BME280;11289;52.524;13.694;2022-07-19T05:57:23;101398.00;;;21.16;51.74
22241;BME280;11289;52.524;13.694;2022-07-19T05:59:48;101399.03;;;21.68;50.15
22241;BME280;11289;52.524;13.694;2022-07-19T06:02:14;101404.56;;;22.02;48.84
22241;BME280;11289;52.524;13.694;2022-07-19T06:04:40;101390.16;;;22.22;48.10
22241;BME280;11289;52.524;13.694;2022-07-19T06:07:05;101400.91;;;22.47;47.66
22241;BME280;11289;52.524;13.694;2022-07-19T06:09:31;101397.41;;;22.75;47.59
22241;BME280;11289;52.524;13.694;2022-07-19T06:11:56;101389.91;;;23.11;46.06
22241;BME280;11289;52.524;13.694;2022-07-19T06:14:22;101390.78;;;23.30;44.88
22241;BME280;11289;52.524;13.694;2022-07-19T06:16:47;101383.56;;;23.51;43.99
22241;BME280;11289;52.524;13.694;2022-07-19T06:19:13;101386.00;;;23.74;43.80
22241;BME280;11289;52.524;13.694;2022-07-19T06:21:38;101384.44;;;23.91;42.59
22241;BME280;11289;52.524;13.694;2022-07-19T06:24:04;101393.72;;;24.16;42.26
22241;BME280;11289;52.524;13.694;2022-07-19T06:26:30;101389.25;;;24.33;41.60
22241;BME280;11289;52.524;13.694;2022-07-19T06:28:56;101389.22;;;24.55;41.19
22241;BME280;11289;52.524;13.694;2022-07-19T06:31:22;101385.53;;;24.80;41.48
22241;BME280;11289;52.524;13.694;2022-07-19T06:33:49;101391.50;;;25.07;40.40
22241;BME280;11289;52.524;13.694;2022-07-19T06:36:15;101394.66;;;25.31;40.33
22241;BME280;11289;52.524;13.694;2022-07-19T06:38:41;101400.19;;;25.56;40.70
22241;BME280;11289;52.524;13.694;2022-07-19T06:41:07;101392.75;;;25.77;39.12
22241;BME280;11289;52.524;13.694;2022-07-19T06:43:34;101395.84;;;25.93;38.55
22241;BME280;11289;52.524;13.694;2022-07-19T06:45:59;101405.50;;;26.10;38.91
22241;BME280;11289;52.524;13.694;2022-07-19T06:48:25;101406.09;;;26.32;38.31
22241;BME280;11289;52.524;13.694;2022-07-19T06:50:50;101403.91;;;26.47;38.18
22241;BME280;11289;52.524;13.694;2022-07-19T06:53:16;101403.28;;;26.70;37.95
22241;BME280;11289;52.524;13.694;2022-07-19T06:55:41;101397.69;;;26.98;38.33
22241;BME280;11289;52.524;13.694;2022-07-19T06:58:07;101386.47;;;27.14;36.21
22241;BME280;11289;52.524;13.694;2022-07-19T07:00:32;101392.56;;;27.47;35.46
22241;BME280;11289;52.524;13.694;2022-07-19T07:02:58;101390.50;;;27.75;34.51
22241;BME280;11289;52.524;13.694;2022-07-19T07:05:23;101388.06;;;28.01;34.44
22241;BME280;11289;52.524;13.694;2022-07-19T07:07:49;101380.88;;;28.16;33.08
22241;BME280;11289;52.524;13.694;2022-07-19T07:10:16;101379.88;;;28.26;33.16
22241;BME280;11289;52.524;13.694;2022-07-19T07:12:42;101398.81;;;28.60;33.38
22241;BME280;11289;52.524;13.694;2022-07-19T07:15:08;101394.75;;;28.81;32.33
22241;BME280;11289;52.524;13.694;2022-07-19T07:17:35;101383.44;;;28.94;32.27
22241;BME280;11289;52.524;13.694;2022-07-19T07:20:03;101390.69;;;29.19;31.79
22241;BME280;11289;52.524;13.694;2022-07-19T07:22:28;101390.66;;;29.39;31.69
22241;BME280;11289;52.524;13.694;2022-07-19T07:24:54;101388.03;;;29.65;29.67
22241;BME280;11289;52.524;13.694;2022-07-19T07:27:19;101386.28;;;29.88;30.89
22241;BME280;11289;52.524;13.694;2022-07-19T07:29:45;101383.50;;;30.00;29.98
22241;BME280;11289;52.524;13.694;2022-07-19T07:32:10;101386.88;;;30.28;30.03
22241;BME280;11289;52.524;13.694;2022-07-19T07:34:36;101398.19;;;30.48;28.27
22241;BME280;11289;52.524;13.694;2022-07-19T07:37:01;101385.41;;;30.36;28.07
22241;BME280;11289;52.524;13.694;2022-07-19T07:39:26;101384.19;;;30.21;29.14
22241;BME280;11289;52.524;13.694;2022-07-19T07:41:52;101383.59;;;30.59;28.66
22241;BME280;11289;52.524;13.694;2022-07-19T07:44:17;101384.50;;;30.98;29.22
22241;BME280;11289;52.524;13.694;2022-07-19T07:46:43;101377.91;;;31.01;27.87
22241;BME280;11289;52.524;13.694;2022-07-19T07:49:08;101389.06;;;30.83;27.83
22241;BME280;11289;52.524;13.694;2022-07-19T07:51:34;101388.59;;;30.84;27.68
22241;BME280;11289;52.524;13.694;2022-07-19T07:54:00;101392.56;;;31.03;28.36
22241;BME280;11289;52.524;13.694;2022-07-19T07:56:25;101386.63;;;31.23;26.97
22241;BME280;11289;52.524;13.694;2022-07-19T07:58:51;101369.44;;;31.23;28.02
22241;BME280;11289;52.524;13.694;2022-07-19T08:01:16;101389.88;;;31.64;26.28
22241;BME280;11289;52.524;13.694;2022-07-19T08:03:42;101385.97;;;31.71;26.56
22241;BME280;11289;52.524;13.694;2022-07-19T08:06:08;101388.47;;;31.94;26.69
22241;BME280;11289;52.524;13.694;2022-07-19T08:08:34;101386.97;;;32.16;27.08
22241;BME280;11289;52.524;13.694;2022-07-19T08:10:59;101372.19;;;32.39;26.90
22241;BME280;11289;52.524;13.694;2022-07-19T08:13:25;101373.28;;;32.77;25.56
22241;BME280;11289;52.524;13.694;2022-07-19T08:15:50;101378.50;;;32.91;25.55
22241;BME280;11289;52.524;13.694;2022-07-19T08:18:16;101389.28;;;33.09;24.94
22241;BME280;11289;52.524;13.694;2022-07-19T08:20:42;101389.97;;;33.13;24.34
22241;BME280;11289;52.524;13.694;2022-07-19T08:23:08;101387.69;;;33.30;25.20
22241;BME280;11289;52.524;13.694;2022-07-19T08:25:33;101388.09;;;33.51;24.50
22241;BME280;11289;52.524;13.694;2022-07-19T08:28:00;101393.16;;;33.78;23.09
22241;BME280;11289;52.524;13.694;2022-07-19T08:30:25;101385.03;;;33.45;22.89
22241;BME280;11289;52.524;13.694;2022-07-19T08:32:51;101380.34;;;33.79;22.35
22241;BME280;11289;52.524;13.694;2022-07-19T08:35:16;101384.91;;;34.17;22.48
22241;BME280;11289;52.524;13.694;2022-07-19T08:37:41;101382.56;;;34.44;21.70
22241;BME280;11289;52.524;13.694;2022-07-19T08:40:07;101375.16;;;34.24;21.25
22241;BME280;11289;52.524;13.694;2022-07-19T08:42:34;101386.88;;;34.30;21.77
22241;BME280;11289;52.524;13.694;2022-07-19T08:45:01;101379.50;;;34.47;21.75
22241;BME280;11289;52.524;13.694;2022-07-19T08:47:28;101386.19;;;34.72;21.99
22241;BME280;11289;52.524;13.694;2022-07-19T08:49:54;101387.19;;;34.87;21.48
22241;BME280;11289;52.524;13.694;2022-07-19T08:52:23;101381.69;;;35.08;21.58
22241;BME280;11289;52.524;13.694;2022-07-19T08:54:49;101375.03;;;35.26;21.92
22241;BME280;11289;52.524;13.694;2022-07-19T08:57:14;101380.53;;;35.15;21.84
22241;BME280;11289;52.524;13.694;2022-07-19T08:59:58;101378.09;;;35.32;21.13
22241;BME280;11289;52.524;13.694;2022-07-19T09:02:24;101383.44;;;35.58;20.59
22241;BME280;11289;52.524;13.694;2022-07-19T09:05:04;101382.72;;;35.72;21.06
22241;BME280;11289;52.524;13.694;2022-07-19T09:07:34;101384.78;;;35.81;20.16
22241;BME280;11289;52.524;13.694;2022-07-19T09:10:16;101381.31;;;35.91;20.00
22241;BME280;11289;52.524;13.694;2022-07-19T09:15:51;101371.06;;;36.15;20.23
22241;BME280;11289;52.524;13.694;2022-07-19T09:18:21;101371.66;;;36.19;20.10
22241;BME280;11289;52.524;13.694;2022-07-19T09:20:52;101371.38;;;36.17;20.09
22241;BME280;11289;52.524;13.694;2022-07-19T09:23:19;101359.78;;;36.41;19.73
22241;BME280;11289;52.524;13.694;2022-07-19T09:25:47;101365.50;;;36.65;19.69
22241;BME280;11289;52.524;13.694;2022-07-19T09:28:14;101360.09;;;36.43;18.29
22241;BME280;11289;52.524;13.694;2022-07-19T09:30:42;101356.84;;;36.65;18.92
22241;BME280;11289;52.524;13.694;2022-07-19T09:33:18;101361.56;;;36.92;18.51
22241;BME280;11289;52.524;13.694;2022-07-19T09:35:49;101366.22;;;37.05;18.15
22241;BME280;11289;52.524;13.694;2022-07-19T09:38:19;101359.16;;;37.06;17.81
22241;BME280;11289;52.524;13.694;2022-07-19T09:40:46;101354.88;;;37.31;18.86
22241;BME280;11289;52.524;13.694;2022-07-19T09:43:12;101354.41;;;37.53;17.37
22241;BME280;11289;52.524;13.694;2022-07-19T09:45:38;101351.09;;;37.60;17.25
22241;BME280;11289;52.524;13.694;2022-07-19T09:48:04;101353.50;;;37.47;17.70
22241;BME280;11289;52.524;13.694;2022-07-19T09:50:30;101344.75;;;37.77;17.95
22241;BME280;11289;52.524;13.694;2022-07-19T09:52:58;101338.09;;;38.12;17.73
22241;BME280;11289;52.524;13.694;2022-07-19T09:55:24;101350.09;;;38.46;17.54
22241;BME280;11289;52.524;13.694;2022-07-19T09:57:51;101341.97;;;38.50;17.19
22241;BME280;11289;52.524;13.694;2022-07-19T10:00:19;101348.06;;;38.52;16.47
22241;BME280;11289;52.524;13.694;2022-07-19T10:02:48;101338.97;;;38.39;17.27
22241;BME280;11289;52.524;13.694;2022-07-19T10:05:15;101338.84;;;38.80;17.08
22241;BME280;11289;52.524;13.694;2022-07-19T10:07:41;101343.81;;;39.06;16.43
22241;BME280;11289;52.524;13.694;2022-07-19T10:10:09;101342.97;;;39.31;16.77
22241;BME280;11289;52.524;13.694;2022-07-19T10:12:37;101342.31;;;39.48;15.04
22241;BME280;11289;52.524;13.694;2022-07-19T10:15:04;101327.94;;;39.33;16.13
22241;BME280;11289;52.524;13.694;2022-07-19T10:20:25;101322.41;;;39.73;15.20
22241;BME280;11289;52.524;13.694;2022-07-19T10:22:51;101331.94;;;39.79;15.82
22241;BME280;11289;52.524;13.694;2022-07-19T10:25:17;101325.13;;;39.93;15.45
22241;BME280;11289;52.524;13.694;2022-07-19T10:27:45;101328.63;;;40.03;15.36
22241;BME280;11289;52.524;13.694;2022-07-19T10:32:37;101316.53;;;40.27;13.83
22241;BME280;11289;52.524;13.694;2022-07-19T10:37:47;101310.91;;;39.52;14.39
22241;BME280;11289;52.524;13.694;2022-07-19T10:40:14;101309.19;;;39.28;14.40
22241;BME280;11289;52.524;13.694;2022-07-19T10:45:31;101297.09;;;39.35;15.05
22241;BME280;11289;52.524;13.694;2022-07-19T10:48:02;101305.28;;;39.86;15.14
22241;BME280;11289;52.524;13.694;2022-07-19T10:53:09;101293.44;;;40.01;13.87
22241;BME280;11289;52.524;13.694;2022-07-19T10:55:34;101285.31;;;40.11;13.96
22241;BME280;11289;52.524;13.694;2022-07-19T10:58:11;101288.78;;;40.37;14.25
22241;BME280;11289;52.524;13.694;2022-07-19T11:00:43;101295.19;;;40.47;14.62
22241;BME280;11289;52.524;13.694;2022-07-19T11:05:54;101292.84;;;40.74;13.40
22241;BME280;11289;52.524;13.694;2022-07-19T11:08:37;101284.66;;;40.72;13.73
22241;BME280;11289;52.524;13.694;2022-07-19T11:11:07;101285.44;;;40.84;13.06
22241;BME280;11289;52.524;13.694;2022-07-19T11:13:34;101271.09;;;40.35;13.21
22241;BME280;11289;52.524;13.694;2022-07-19T11:16:00;101264.00;;;40.53;13.19
22241;BME280;11289;52.524;13.694;2022-07-19T11:18:28;101270.03;;;40.33;12.93
22241;BME280;11289;52.524;13.694;2022-07-19T11:20:59;101270.03;;;40.27;14.05
22241;BME280;11289;52.524;13.694;2022-07-19T11:23:28;101260.31;;;40.53;13.41
22241;BME280;11289;52.524;13.694;2022-07-19T11:26:18;101274.31;;;40.88;14.19
22241;BME280;11289;52.524;13.694;2022-07-19T11:28:47;101273.47;;;41.28;14.18
22241;BME280;11289;52.524;13.694;2022-07-19T11:31:16;101260.75;;;41.36;12.97
22241;BME280;11289;52.524;13.694;2022-07-19T11:33:43;101263.41;;;41.40;13.85
22241;BME280;11289;52.524;13.694;2022-07-19T11:36:10;101265.47;;;41.56;12.25
22241;BME280;11289;52.524;13.694;2022-07-19T11:38:38;101261.97;;;41.69;12.90
22241;BME280;11289;52.524;13.694;2022-07-19T11:41:21;101265.16;;;41.71;12.48
22241;BME280;11289;52.524;13.694;2022-07-19T11:43:56;101270.50;;;41.50;12.90
22241;BME280;11289;52.524;13.694;2022-07-19T11:46:25;101261.81;;;41.33;12.51
22241;BME280;11289;52.524;13.694;2022-07-19T11:48:56;101264.22;;;41.23;12.10
22241;BME280;11289;52.524;13.694;2022-07-19T11:51:22;101276.09;;;41.31;12.29
22241;BME280;11289;52.524;13.694;2022-07-19T11:53:50;101269.22;;;41.40;12.32
22241;BME280;11289;52.524;13.694;2022-07-19T11:56:29;101260.66;;;41.65;12.07
22241;BME280;11289;52.524;13.694;2022-07-19T11:58:57;101263.78;;;41.84;12.02
22241;BME280;11289;52.524;13.694;2022-07-19T12:01:31;101263.63;;;42.12;12.14
22241;BME280;11289;52.524;13.694;2022-07-19T12:04:05;101262.56;;;42.09;12.92
22241;BME280;11289;52.524;13.694;2022-07-19T12:06:48;101252.09;;;41.89;11.68
22241;BME280;11289;52.524;13.694;2022-07-19T12:09:25;101248.63;;;41.91;11.74
22241;BME280;11289;52.524;13.694;2022-07-19T12:11:52;101256.53;;;42.02;12.44
22241;BME280;11289;52.524;13.694;2022-07-19T12:14:25;101251.63;;;42.27;12.80
22241;BME280;11289;52.524;13.694;2022-07-19T12:19:43;101256.66;;;42.57;12.49
22241;BME280;11289;52.524;13.694;2022-07-19T12:22:34;101250.63;;;42.49;12.12
22241;BME280;11289;52.524;13.694;2022-07-19T12:24:59;101255.88;;;42.56;12.63
22241;BME280;11289;52.524;13.694;2022-07-19T12:27:25;101256.34;;;42.30;11.25
22241;BME280;11289;52.524;13.694;2022-07-19T12:29:54;101246.28;;;41.84;12.23
22241;BME280;11289;52.524;13.694;2022-07-19T12:32:28;101249.38;;;41.97;12.12
22241;BME280;11289;52.524;13.694;2022-07-19T12:35:00;101247.66;;;42.24;12.52
22241;BME280;11289;52.524;13.694;2022-07-19T12:42:47;101236.00;;;42.55;12.20
22241;BME280;11289;52.524;13.694;2022-07-19T12:45:22;101240.50;;;42.61;12.70
22241;BME280;11289;52.524;13.694;2022-07-19T12:47:49;101240.13;;;42.71;11.94
22241;BME280;11289;52.524;13.694;2022-07-19T12:50:42;101238.50;;;42.75;12.32
22241;BME280;11289;52.524;13.694;2022-07-19T12:53:10;101241.66;;;42.47;11.43
22241;BME280;11289;52.524;13.694;2022-07-19T12:55:37;101229.03;;;42.33;12.25
22241;BME280;11289;52.524;13.694;2022-07-19T12:58:05;101230.31;;;42.38;12.12
22241;BME280;11289;52.524;13.694;2022-07-19T13:00:33;101236.38;;;42.45;11.42
22241;BME280;11289;52.524;13.694;2022-07-19T13:02:59;101234.28;;;41.46;11.83
22241;BME280;11289;52.524;13.694;2022-07-19T13:05:26;101227.34;;;41.54;12.35
22241;BME280;11289;52.524;13.694;2022-07-19T13:07:52;101223.53;;;41.82;12.28
22241;BME280;11289;52.524;13.694;2022-07-19T13:10:18;101217.91;;;41.90;13.03
22241;BME280;11289;52.524;13.694;2022-07-19T13:12:44;101229.19;;;42.10;12.50
22241;BME280;11289;52.524;13.694;2022-07-19T13:15:11;101228.34;;;42.16;12.56
22241;BME280;11289;52.524;13.694;2022-07-19T13:17:36;101219.59;;;42.16;11.07
22241;BME280;11289;52.524;13.694;2022-07-19T13:20:04;101218.81;;;42.15;11.91
22241;BME280;11289;52.524;13.694;2022-07-19T13:22:32;101208.06;;;42.35;12.17
22241;BME280;11289;52.524;13.694;2022-07-19T13:25:01;101216.34;;;42.61;11.86
22241;BME280;11289;52.524;13.694;2022-07-19T13:27:26;101212.56;;;42.36;10.80
22241;BME280;11289;52.524;13.694;2022-07-19T13:29:52;101201.25;;;41.85;12.04
22241;BME280;11289;52.524;13.694;2022-07-19T13:32:19;101193.06;;;41.83;11.56
22241;BME280;11289;52.524;13.694;2022-07-19T13:34:44;101213.66;;;41.91;12.42
22241;BME280;11289;52.524;13.694;2022-07-19T13:37:10;101205.00;;;42.16;12.19
22241;BME280;11289;52.524;13.694;2022-07-19T13:39:36;101205.56;;;41.67;11.85
22241;BME280;11289;52.524;13.694;2022-07-19T13:42:02;101207.91;;;41.80;11.85
22241;BME280;11289;52.524;13.694;2022-07-19T13:44:27;101191.53;;;41.65;12.26
22241;BME280;11289;52.524;13.694;2022-07-19T13:46:53;101184.06;;;41.81;12.21
22241;BME280;11289;52.524;13.694;2022-07-19T13:49:18;101174.97;;;41.96;11.76
22241;BME280;11289;52.524;13.694;2022-07-19T13:51:45;101197.78;;;41.92;11.54
22241;BME280;11289;52.524;13.694;2022-07-19T13:54:13;101190.06;;;41.95;11.94
22241;BME280;11289;52.524;13.694;2022-07-19T13:56:39;101188.28;;;42.22;12.32
22241;BME280;11289;52.524;13.694;2022-07-19T13:59:04;101191.63;;;42.37;11.85
22241;BME280;11289;52.524;13.694;2022-07-19T14:01:31;101191.53;;;42.49;11.73
22241;BME280;11289;52.524;13.694;2022-07-19T14:03:56;101189.34;;;42.55;10.92
22241;BME280;11289;52.524;13.694;2022-07-19T14:06:24;101186.50;;;42.07;11.86
22241;BME280;11289;52.524;13.694;2022-07-19T14:08:52;101197.69;;;42.03;11.47
22241;BME280;11289;52.524;13.694;2022-07-19T14:11:17;101185.09;;;41.84;11.76
22241;BME280;11289;52.524;13.694;2022-07-19T14:13:43;101178.88;;;41.57;12.17
22241;BME280;11289;52.524;13.694;2022-07-19T14:16:08;101173.72;;;41.21;12.48
22241;BME280;11289;52.524;13.694;2022-07-19T14:18:52;101172.88;;;41.32;12.65
22241;BME280;11289;52.524;13.694;2022-07-19T14:21:18;101184.97;;;41.53;12.46
22241;BME280;11289;52.524;13.694;2022-07-19T14:23:43;101182.78;;;41.65;12.44
22241;BME280;11289;52.524;13.694;2022-07-19T14:26:09;101185.50;;;41.57;12.07
22241;BME280;11289;52.524;13.694;2022-07-19T14:28:34;101180.34;;;41.22;12.31
22241;BME280;11289;52.524;13.694;2022-07-19T14:30:59;101178.72;;;41.32;12.71
22241;BME280;11289;52.524;13.694;2022-07-19T14:33:25;101176.50;;;41.55;12.52
22241;BME280;11289;52.524;13.694;2022-07-19T14:35:52;101168.88;;;41.47;12.36
22241;BME280;11289;52.524;13.694;2022-07-19T14:38:17;101164.84;;;41.61;12.91
22241;BME280;11289;52.524;13.694;2022-07-19T14:40:44;101172.25;;;41.56;12.23
22241;BME280;11289;52.524;13.694;2022-07-19T14:43:09;101176.81;;;41.46;12.32
22241;BME280;11289;52.524;13.694;2022-07-19T14:45:35;101157.78;;;41.39;12.43
22241;BME280;11289;52.524;13.694;2022-07-19T14:48:00;101158.84;;;41.36;11.80